createdAt,value
2019-05-20T00:02:29.325Z,6.10
2019-05-20T00:07:32.330Z,5.87
2019-05-20T00:12:35.062Z,6.30
2019-05-20T00:17:37.775Z,6.00
2019-05-20T00:22:40.809Z,6.00
2019-05-20T00:27:43.674Z,5.87
2019-05-20T00:32:46.365Z,5.70
2019-05-20T00:37:49.559Z,6.30
2019-05-20T00:42:52.482Z,6.40
2019-05-20T00:47:56.462Z,6.42
2019-05-20T00:52:59.197Z,5.90
2019-05-20T00:58:03.925Z,7.00
2019-05-20T01:03:06.600Z,6.25
2019-05-20T01:08:09.472Z,6.45
2019-05-20T01:13:12.713Z,6.83
2019-05-20T01:18:15.526Z,8.00
2019-05-20T01:23:18.221Z,8.27
2019-05-20T01:28:21.010Z,8.73
2019-05-20T01:33:23.896Z,8.45
2019-05-20T01:38:27.588Z,8.40
2019-05-20T01:43:30.286Z,11.13
2019-05-20T01:48:33.022Z,11.77
2019-05-20T01:53:35.744Z,11.03
2019-05-20T01:58:39.657Z,11.60
2019-05-20T02:03:42.744Z,11.40
2019-05-20T02:08:45.479Z,10.63
2019-05-20T02:13:57.748Z,13.43
2019-05-20T02:19:00.483Z,15.30
2019-05-20T02:24:03.227Z,12.57
2019-05-20T02:29:06.262Z,16.03
2019-05-20T02:34:08.984Z,12.60
2019-05-20T02:39:11.787Z,13.67
2019-05-20T02:44:14.573Z,12.40
2019-05-20T02:49:17.478Z,8.43
2019-05-20T02:54:21.329Z,11.37
2019-05-20T02:59:24.034Z,10.20
2019-05-20T03:04:27.011Z,11.05
2019-05-20T03:09:29.670Z,7.90
2019-05-20T03:14:32.385Z,8.17
2019-05-20T03:19:43.247Z,9.40
2019-05-20T03:24:46.028Z,7.23
2019-05-20T03:29:49.191Z,9.05
2019-05-20T03:34:59.259Z,9.68
2019-05-20T03:39:56.603Z,9.20
2019-05-20T03:44:59.381Z,8.87
2019-05-20T03:50:02.296Z,8.57
2019-05-20T03:55:07.148Z,8.33
2019-05-20T04:00:11.020Z,8.80
2019-05-20T04:05:13.781Z,8.17
2019-05-20T04:10:16.543Z,8.60
2019-05-20T04:15:19.340Z,7.30
2019-05-20T04:26:15.396Z,8.13
2019-05-20T04:31:40.320Z,8.45
2019-05-20T04:36:48.128Z,7.10
2019-05-20T04:41:55.960Z,8.10
2019-05-20T04:46:58.789Z,7.83
2019-05-20T04:52:02.993Z,8.50
2019-05-20T04:57:08.974Z,7.80
2019-05-20T05:02:12.586Z,8.40
2019-05-20T05:07:15.777Z,7.93
2019-05-20T05:12:18.933Z,8.03
2019-05-20T05:17:23.365Z,8.10
2019-05-20T05:22:32.675Z,7.12
2019-05-20T05:27:35.487Z,6.12
2019-05-20T05:32:41.369Z,5.95
2019-05-20T05:37:45.377Z,5.80
2019-05-20T05:42:48.217Z,5.50
2019-05-20T05:47:51.545Z,4.70
2019-05-20T05:52:54.346Z,4.53
2019-05-20T05:57:57.082Z,5.03
2019-05-20T06:03:00.186Z,5.97
2019-05-20T06:08:03.509Z,4.67
2019-05-20T06:13:06.180Z,6.42
2019-05-20T06:18:08.939Z,5.87
2019-05-20T06:23:11.693Z,6.00
2019-05-20T06:28:14.332Z,6.08
2019-05-20T06:33:17.147Z,6.33
2019-05-20T06:38:37.899Z,6.80
2019-05-20T06:43:41.920Z,6.12
2019-05-20T06:48:44.557Z,6.65
2019-05-20T06:53:47.385Z,6.28
2019-05-20T06:58:50.461Z,6.78
2019-05-20T07:03:53.203Z,6.78
2019-05-20T07:08:56.043Z,7.50
2019-05-20T07:13:58.789Z,7.28
2019-05-20T07:19:01.856Z,7.03
2019-05-20T07:24:04.906Z,7.25
2019-05-20T07:29:07.701Z,7.62
2019-05-20T07:34:10.479Z,8.50
2019-05-20T07:39:14.397Z,8.03
2019-05-20T07:44:17.180Z,9.00
2019-05-20T07:49:20.180Z,8.40
2019-05-20T07:54:23.694Z,8.93
2019-05-20T07:59:29.713Z,9.05
2019-05-20T08:04:32.571Z,8.70
2019-05-20T08:09:42.542Z,8.93
2019-05-20T08:14:40.021Z,9.00
2019-05-20T08:19:42.734Z,9.33
2019-05-20T08:24:45.470Z,9.13
2019-05-20T08:29:48.197Z,9.45
2019-05-20T08:34:50.933Z,9.03
2019-05-20T08:39:54.730Z,9.30
2019-05-20T08:44:57.551Z,9.78
2019-05-20T08:50:00.262Z,10.95
2019-05-20T08:55:03.232Z,11.10
2019-05-20T09:00:06.584Z,10.18
2019-05-20T09:05:09.987Z,9.70
2019-05-20T09:10:12.922Z,9.20
2019-05-20T09:15:16.725Z,10.15
2019-05-20T09:20:19.792Z,9.75
2019-05-20T09:25:29.789Z,10.20
2019-05-20T09:30:32.491Z,10.20
2019-05-20T09:35:35.383Z,10.70
2019-05-20T09:40:40.297Z,9.18
2019-05-20T09:45:43.001Z,8.90
2019-05-20T09:50:45.781Z,9.80
2019-05-20T09:55:48.601Z,8.58
2019-05-20T10:00:51.859Z,8.68
2019-05-20T10:05:54.679Z,8.55
2019-05-20T10:10:59.869Z,8.48
2019-05-20T10:16:02.670Z,8.23
2019-05-20T10:21:06.811Z,8.53
2019-05-20T10:26:09.548Z,8.38
2019-05-20T10:31:21.751Z,8.73
2019-05-20T10:36:24.614Z,7.08
2019-05-20T10:41:29.524Z,7.45
2019-05-20T10:46:35.705Z,7.92
2019-05-20T10:51:38.413Z,6.80
2019-05-20T10:56:41.303Z,7.25
2019-05-20T11:01:44.329Z,6.87
2019-05-20T11:06:47.558Z,6.78
2019-05-20T11:11:50.328Z,7.22
2019-05-20T11:16:53.066Z,6.22
2019-05-20T11:21:55.857Z,6.20
2019-05-20T11:26:59.738Z,6.40
2019-05-20T11:32:03.936Z,6.53
2019-05-20T11:37:07.828Z,6.78
2019-05-20T11:42:10.615Z,5.78
2019-05-20T11:47:13.385Z,5.83
2019-05-20T11:52:16.123Z,5.87
2019-05-20T11:57:19.328Z,5.08
2019-05-20T12:02:25.952Z,5.25
2019-05-20T12:07:28.807Z,5.03
2019-05-20T12:12:31.647Z,5.50
2019-05-20T12:17:34.438Z,5.58
2019-05-20T12:22:37.320Z,5.30
2019-05-20T12:27:40.237Z,5.33
2019-05-20T12:32:43.218Z,5.55
2019-05-20T12:37:45.996Z,5.15
2019-05-20T12:42:48.707Z,5.50
2019-05-20T12:47:51.411Z,6.20
2019-05-20T12:52:54.131Z,5.90
2019-05-20T12:57:56.799Z,4.78
2019-05-20T13:02:59.632Z,5.65
2019-05-20T13:08:03.022Z,5.50
2019-05-20T13:13:05.775Z,8.70
2019-05-20T13:18:08.585Z,10.30
2019-05-20T13:23:13.336Z,11.15
2019-05-20T13:28:15.924Z,10.98
2019-05-20T13:33:18.528Z,10.65
2019-05-20T13:38:21.301Z,9.78
2019-05-20T13:43:24.123Z,10.03
2019-05-20T13:48:26.855Z,10.65
2019-05-20T13:53:29.810Z,9.68
2019-05-20T13:58:32.657Z,10.38
2019-05-20T14:03:35.386Z,10.40
2019-05-20T14:08:38.119Z,9.90
2019-05-20T14:13:40.825Z,8.53
2019-05-20T14:18:43.589Z,8.68
2019-05-20T14:23:46.304Z,7.37
2019-05-20T14:28:49.120Z,7.05
2019-05-20T14:33:51.879Z,7.20
2019-05-20T14:38:54.518Z,7.17
2019-05-20T14:43:58.415Z,7.50
2019-05-20T14:49:02.560Z,7.75
2019-05-20T14:54:05.618Z,7.83
2019-05-20T14:59:08.426Z,8.43
2019-05-20T15:04:11.155Z,8.00
2019-05-20T15:09:13.797Z,8.30
2019-05-20T15:14:16.794Z,9.15
2019-05-20T15:19:19.486Z,7.75
2019-05-20T15:24:22.222Z,8.33
2019-05-20T15:29:28.107Z,8.40
2019-05-20T15:34:29.391Z,7.20
2019-05-20T15:39:32.441Z,7.40
2019-05-20T15:44:35.435Z,8.30
2019-05-20T15:49:38.481Z,7.87
2019-05-20T15:54:41.532Z,7.40
2019-05-20T15:59:46.412Z,7.97
2019-05-20T16:04:49.118Z,7.65
2019-05-20T16:09:52.083Z,10.00
2019-05-20T16:14:54.888Z,8.03
2019-05-20T16:19:57.727Z,7.25
2019-05-20T16:25:00.565Z,7.47
2019-05-20T16:30:06.843Z,7.70
2019-05-20T16:35:12.510Z,7.92
2019-05-20T16:40:19.453Z,7.75
2019-05-20T16:45:22.234Z,7.37
2019-05-20T16:50:25.171Z,6.70
2019-05-20T16:55:27.938Z,6.55
2019-05-20T17:00:32.384Z,6.62
2019-05-20T17:05:35.428Z,6.62
2019-05-20T17:10:38.268Z,5.95
2019-05-20T17:21:11.168Z,6.17
2019-05-20T17:26:13.872Z,7.30
2019-05-20T17:31:17.655Z,7.15
2019-05-20T17:36:20.517Z,7.47
2019-05-20T17:41:23.647Z,6.85
2019-05-20T17:46:26.490Z,7.90
2019-05-20T17:51:29.365Z,8.25
2019-05-20T17:56:32.216Z,8.08
2019-05-20T18:01:35.411Z,8.18
2019-05-20T18:06:38.082Z,7.92
2019-05-20T18:11:41.181Z,7.67
2019-05-20T18:16:44.043Z,9.00
2019-05-20T18:21:46.978Z,8.15
2019-05-20T18:26:49.860Z,8.55
2019-05-20T18:32:00.825Z,8.80
2019-05-20T18:37:04.852Z,8.95
2019-05-20T18:42:08.807Z,9.60
2019-05-20T18:47:12.497Z,10.40
2019-05-20T18:52:15.275Z,9.35
2019-05-20T18:57:18.227Z,10.08
2019-05-20T19:02:21.019Z,11.15
2019-05-20T19:07:23.781Z,10.93
2019-05-20T19:12:26.574Z,11.63
2019-05-20T19:17:29.507Z,11.03
2019-05-20T19:22:32.510Z,10.78
2019-05-20T19:27:35.436Z,11.88
2019-05-20T19:32:38.350Z,10.48
2019-05-20T19:37:41.194Z,11.35
2019-05-20T19:42:43.982Z,11.20
2019-05-20T19:47:46.997Z,11.05
2019-05-20T19:52:49.856Z,11.15
2019-05-20T19:57:52.587Z,12.18
2019-05-20T20:02:55.349Z,11.65
2019-05-20T20:07:58.278Z,12.78
2019-05-20T20:18:47.952Z,12.35
2019-05-20T20:23:50.807Z,12.23
2019-05-20T20:28:53.666Z,12.15
2019-05-20T20:33:56.307Z,12.30
2019-05-20T20:38:59.145Z,13.48
2019-05-20T20:44:02.067Z,12.18
2019-05-20T20:49:04.863Z,11.33
2019-05-20T20:54:07.800Z,12.37
2019-05-20T20:59:12.911Z,11.08
2019-05-20T21:04:15.656Z,11.28
2019-05-20T21:09:18.590Z,12.45
2019-05-20T21:14:21.282Z,11.90
2019-05-20T21:19:23.883Z,10.88
2019-05-20T21:24:26.737Z,11.68
2019-05-20T21:29:32.452Z,11.30
2019-05-20T21:34:34.112Z,11.18
2019-05-20T21:39:36.763Z,13.20
2019-05-20T21:44:39.481Z,11.15
2019-05-20T21:49:42.068Z,11.50
2019-05-20T21:54:45.038Z,12.00
2019-05-20T21:59:47.876Z,12.43
2019-05-20T22:04:50.649Z,11.75
2019-05-20T22:09:54.662Z,11.30
2019-05-20T22:14:57.583Z,11.60
2019-05-20T22:20:00.329Z,11.88
2019-05-20T22:25:04.448Z,11.85
2019-05-20T22:30:08.701Z,12.58
2019-05-20T22:35:13.012Z,12.00
2019-05-20T22:40:15.939Z,11.75
2019-05-20T22:45:19.106Z,12.25
2019-05-20T22:50:21.986Z,11.85
2019-05-20T22:55:24.894Z,12.98
2019-05-20T23:00:27.627Z,12.07
2019-05-20T23:05:30.621Z,12.95
2019-05-20T23:10:36.533Z,12.90
2019-05-20T23:15:39.475Z,12.80
2019-05-20T23:20:42.229Z,14.00
2019-05-20T23:25:45.350Z,13.45
2019-05-20T23:30:48.214Z,13.70
2019-05-20T23:35:51.015Z,13.40
2019-05-20T23:40:54.210Z,13.33
2019-05-20T23:45:56.781Z,14.35
2019-05-20T23:50:59.472Z,14.73
2019-05-20T23:56:02.992Z,13.40
